Terminal Aerodrome Forecast
Issued by NWS

Home | Current Version | Previous Version | Text Only | Print | Product List | Glossary Off
Versions: 1 2 3 4 5 6 7 8 9 10 11 12 13 14

814
FTUS43 KPAH 051720
TAFCGI
TAF
KCGI 051720Z 0518/0618 24007KT P6SM BKN250
      TEMPO 0523/0603 SCT025
     FM060300 VRB02KT P6SM BKN250
     FM061500 23006KT P6SM SCT070 BKN150=

USA.gov is the U.S. government's official web portal to all federal, state and local government web resources and services.